createdAt,value
2022-09-20T00:01:13.170Z,52.69
2022-09-20T00:03:43.696Z,53.04
2022-09-20T00:06:13.064Z,52.83
2022-09-20T00:08:43.523Z,53.06
2022-09-20T00:11:14.171Z,53.03
2022-09-20T00:13:42.573Z,53.00
2022-09-20T00:16:11.636Z,53.06
2022-09-20T00:18:39.727Z,53.04
2022-09-20T00:21:07.860Z,53.08
2022-09-20T00:23:36.508Z,52.98
2022-09-20T00:26:06.168Z,53.31
2022-09-20T00:28:34.611Z,53.07
2022-09-20T00:31:02.621Z,52.91
2022-09-20T00:33:44.571Z,53.16
2022-09-20T00:36:12.583Z,53.25
2022-09-20T00:38:40.603Z,53.26
2022-09-20T00:41:10.222Z,53.28
2022-09-20T00:43:39.363Z,53.47
2022-09-20T00:46:07.868Z,53.20
2022-09-20T00:48:35.965Z,53.34
2022-09-20T00:51:05.862Z,53.47
2022-09-20T00:53:35.068Z,53.44
2022-09-20T00:56:05.348Z,53.42
2022-09-20T00:58:36.772Z,53.74
2022-09-20T01:01:04.994Z,53.56
2022-09-20T01:03:33.320Z,53.64
2022-09-20T01:06:01.632Z,53.72
2022-09-20T01:08:29.635Z,53.74
2022-09-20T01:10:57.661Z,53.92
2022-09-20T01:13:25.686Z,54.09
2022-09-20T01:15:55.105Z,54.05
2022-09-20T01:18:23.160Z,54.00
2022-09-20T01:20:51.186Z,54.29
2022-09-20T01:23:31.536Z,54.36
2022-09-20T01:26:32.098Z,54.50
2022-09-20T01:29:04.540Z,54.75
2022-09-20T01:31:34.699Z,54.72
2022-09-20T01:34:03.878Z,54.64
2022-09-20T01:36:35.082Z,54.70
2022-09-20T01:39:07.453Z,54.67
2022-09-20T01:41:37.154Z,54.85
2022-09-20T01:44:08.661Z,55.06
2022-09-20T01:46:37.270Z,54.94
2022-09-20T01:49:14.971Z,54.90
2022-09-20T01:52:11.163Z,55.02
2022-09-20T01:55:08.949Z,55.26
2022-09-20T01:57:57.997Z,55.05
2022-09-20T02:00:27.490Z,55.07
2022-09-20T02:03:20.402Z,54.91
2022-09-20T02:06:14.471Z,55.41
2022-09-20T02:09:05.487Z,55.43
2022-09-20T02:11:40.840Z,55.47
2022-09-20T02:14:26.972Z,55.41
2022-09-20T02:16:57.410Z,55.15
2022-09-20T02:20:04.098Z,55.39
2022-09-20T02:22:54.276Z,55.51
2022-09-20T02:25:32.630Z,55.43
2022-09-20T02:28:07.377Z,55.33
2022-09-20T02:30:40.585Z,55.26
2022-09-20T02:33:16.892Z,55.41
2022-09-20T02:35:52.962Z,55.17
2022-09-20T02:38:43.065Z,55.45
2022-09-20T02:41:43.168Z,55.39
2022-09-20T02:44:16.592Z,55.26
2022-09-20T02:46:47.981Z,55.39
2022-09-20T02:49:20.257Z,55.35
2022-09-20T02:51:51.918Z,55.24
2022-09-20T02:54:24.191Z,55.35
2022-09-20T02:56:55.637Z,55.28
2022-09-20T02:59:28.793Z,55.38
2022-09-20T03:02:02.004Z,55.31
2022-09-20T03:04:37.139Z,55.43
2022-09-20T03:07:07.096Z,55.59
2022-09-20T03:09:36.473Z,55.60
2022-09-20T03:12:11.210Z,55.65
2022-09-20T03:14:41.778Z,55.51
2022-09-20T03:17:17.286Z,55.50
2022-09-20T03:20:06.041Z,55.55
2022-09-20T03:22:40.453Z,55.57
2022-09-20T03:25:35.282Z,55.53
2022-09-20T03:28:11.135Z,55.51
2022-09-20T03:30:47.103Z,55.30
2022-09-20T03:33:17.985Z,55.42
2022-09-20T03:35:54.289Z,55.36
2022-09-20T03:38:31.963Z,55.44
2022-09-20T03:41:07.697Z,55.45
2022-09-20T03:43:43.837Z,55.52
2022-09-20T03:46:18.650Z,55.64
2022-09-20T03:49:20.802Z,55.57
2022-09-20T03:51:55.767Z,55.68
2022-09-20T03:54:55.127Z,55.83
2022-09-20T03:58:03.154Z,55.65
2022-09-20T04:00:39.712Z,55.40
2022-09-20T04:03:18.911Z,55.41
2022-09-20T04:05:53.550Z,55.58
2022-09-20T04:08:35.673Z,55.63
2022-09-20T04:11:08.239Z,55.57
2022-09-20T04:13:37.959Z,55.65
2022-09-20T04:16:22.442Z,55.63
2022-09-20T04:18:53.075Z,55.41
2022-09-20T04:21:23.884Z,55.53
2022-09-20T04:23:56.517Z,55.70
2022-09-20T04:26:27.273Z,55.50
2022-09-20T04:28:56.989Z,55.66
2022-09-20T04:31:32.984Z,55.69
2022-09-20T04:34:01.118Z,55.78
2022-09-20T04:36:36.707Z,55.69
2022-09-20T04:39:12.983Z,55.72
2022-09-20T04:42:21.932Z,55.88
2022-09-20T04:45:07.939Z,55.88
2022-09-20T04:47:49.758Z,55.86
2022-09-20T04:50:30.093Z,55.99
2022-09-20T04:53:22.830Z,55.95
2022-09-20T04:55:55.718Z,55.94
2022-09-20T04:58:42.277Z,56.10
2022-09-20T05:02:10.237Z,56.40
2022-09-20T05:05:11.765Z,56.29
2022-09-20T05:08:09.899Z,56.38
2022-09-20T05:11:04.351Z,56.20
2022-09-20T05:13:38.356Z,56.34
2022-09-20T05:16:07.243Z,56.15
2022-09-20T05:19:10.435Z,56.28
2022-09-20T05:21:59.688Z,56.35
2022-09-20T05:24:44.183Z,56.43
2022-09-20T05:27:22.321Z,56.45
2022-09-20T05:29:52.675Z,56.26
2022-09-20T05:32:24.658Z,56.29
2022-09-20T05:34:54.385Z,56.37
2022-09-20T05:37:30.247Z,56.34
2022-09-20T05:40:01.002Z,56.41
2022-09-20T05:42:37.514Z,56.32
2022-09-20T05:45:14.561Z,56.34
2022-09-20T05:47:46.694Z,56.32
2022-09-20T05:50:33.229Z,56.24
2022-09-20T05:53:07.067Z,56.20
2022-09-20T05:55:47.867Z,56.26
2022-09-20T05:58:28.690Z,56.22
2022-09-20T06:00:59.081Z,56.48
2022-09-20T06:03:31.713Z,56.26
2022-09-20T06:06:03.681Z,56.15
2022-09-20T06:08:50.226Z,56.36
2022-09-20T06:11:51.119Z,56.55
2022-09-20T06:14:27.588Z,56.35
2022-09-20T06:17:03.806Z,56.36
2022-09-20T06:19:36.053Z,56.62
2022-09-20T06:22:05.656Z,56.78
2022-09-20T06:24:37.314Z,56.90
2022-09-20T06:27:08.693Z,56.80
2022-09-20T06:29:39.436Z,56.94
2022-09-20T06:32:08.276Z,57.01
2022-09-20T06:34:36.506Z,57.26
2022-09-20T06:37:28.741Z,57.29
2022-09-20T06:40:17.612Z,57.37
2022-09-20T06:42:45.737Z,57.32
2022-09-20T06:45:15.514Z,57.32
2022-09-20T06:47:43.599Z,57.38
2022-09-20T06:50:16.465Z,57.20
2022-09-20T06:52:44.987Z,57.35
2022-09-20T06:55:13.016Z,57.41
2022-09-20T06:57:41.007Z,57.33
2022-09-20T07:00:12.391Z,57.46
2022-09-20T07:02:41.833Z,57.26
2022-09-20T07:05:14.850Z,57.27
2022-09-20T07:07:44.033Z,57.41
2022-09-20T07:10:12.310Z,57.54
2022-09-20T07:12:40.341Z,57.50
2022-09-20T07:15:09.306Z,57.27
2022-09-20T07:17:37.332Z,57.36
2022-09-20T07:20:07.671Z,57.28
2022-09-20T07:22:35.942Z,57.33
2022-09-20T07:25:03.947Z,57.34
2022-09-20T07:27:31.953Z,57.42
2022-09-20T07:30:00.045Z,57.41
2022-09-20T07:32:28.192Z,57.34
2022-09-20T07:34:56.223Z,57.49
2022-09-20T07:37:25.639Z,57.56
2022-09-20T07:39:53.642Z,57.47
2022-09-20T07:42:21.875Z,57.39
2022-09-20T07:44:51.062Z,57.45
2022-09-20T07:47:21.518Z,57.55
2022-09-20T07:49:50.698Z,57.46
2022-09-20T07:52:18.900Z,57.51
2022-09-20T07:54:49.995Z,57.29
2022-09-20T07:57:18.305Z,57.33
2022-09-20T07:59:46.363Z,57.33
2022-09-20T08:02:16.614Z,57.37
2022-09-20T08:04:44.790Z,57.55
2022-09-20T08:07:13.685Z,57.27
2022-09-20T08:09:41.759Z,57.20
2022-09-20T08:14:59.209Z,56.75
2022-09-20T08:17:27.253Z,56.72
2022-09-20T08:19:55.322Z,56.58
2022-09-20T08:22:24.052Z,56.27
2022-09-20T08:24:52.327Z,55.99
2022-09-20T08:27:21.811Z,56.13
2022-09-20T08:29:54.146Z,56.24
2022-09-20T08:32:22.389Z,56.22
2022-09-20T08:34:50.498Z,56.27
2022-09-20T08:37:19.331Z,56.38
2022-09-20T08:40:02.971Z,56.28
2022-09-20T08:42:34.367Z,56.27
2022-09-20T08:45:05.404Z,56.27
2022-09-20T08:47:35.925Z,56.15
2022-09-20T08:50:17.685Z,55.84
2022-09-20T08:52:47.056Z,56.00
2022-09-20T08:55:17.565Z,55.74
2022-09-20T08:57:49.958Z,55.30
2022-09-20T09:00:19.542Z,55.38
2022-09-20T09:02:49.128Z,54.79
2022-09-20T09:05:34.276Z,54.22
2022-09-20T09:08:05.431Z,53.99
2022-09-20T09:10:42.602Z,53.95
2022-09-20T09:13:27.719Z,54.02
2022-09-20T09:15:58.414Z,53.86
2022-09-20T09:18:32.441Z,53.81
2022-09-20T09:21:04.273Z,53.80
2022-09-20T09:23:50.681Z,53.63
2022-09-20T09:26:21.309Z,53.80
2022-09-20T09:29:10.848Z,53.79
2022-09-20T09:31:39.995Z,53.81
2022-09-20T09:34:38.975Z,53.80
2022-09-20T09:37:07.140Z,53.72
2022-09-20T09:39:38.382Z,53.85
2022-09-20T09:42:20.791Z,53.65
2022-09-20T09:44:50.478Z,53.70
2022-09-20T09:47:24.642Z,53.88
2022-09-20T09:50:00.845Z,53.49
2022-09-20T09:52:33.481Z,53.60
2022-09-20T09:55:05.160Z,53.47
2022-09-20T09:57:40.377Z,53.31
2022-09-20T10:00:20.346Z,53.44
2022-09-20T10:03:12.136Z,53.35
2022-09-20T10:05:44.676Z,52.98
2022-09-20T10:08:19.241Z,52.95
2022-09-20T10:10:55.304Z,52.92
2022-09-20T10:13:25.818Z,52.73
2022-09-20T10:15:57.494Z,52.82
2022-09-20T10:18:35.206Z,52.70
2022-09-20T10:21:10.118Z,52.55
2022-09-20T10:24:09.043Z,52.70
2022-09-20T10:27:07.982Z,52.68
2022-09-20T10:29:42.598Z,52.64
2022-09-20T10:32:21.173Z,52.40
2022-09-20T10:34:57.889Z,52.57
2022-09-20T10:37:29.763Z,52.74
2022-09-20T10:40:01.812Z,52.86
2022-09-20T10:42:59.837Z,52.69
2022-09-20T10:45:59.512Z,52.85
2022-09-20T10:48:22.996Z,52.50
2022-09-20T10:50:52.970Z,52.20
2022-09-20T10:53:30.583Z,52.66
2022-09-20T10:56:04.524Z,53.91
2022-09-20T10:59:09.752Z,52.90
2022-09-20T11:01:40.956Z,49.95
2022-09-20T11:04:23.010Z,48.98
2022-09-20T11:06:52.790Z,49.38
2022-09-20T11:09:22.242Z,49.35
2022-09-20T11:11:51.908Z,48.67
2022-09-20T11:14:24.800Z,47.93
2022-09-20T11:16:56.227Z,49.03
2022-09-20T11:19:27.982Z,50.25
2022-09-20T11:21:58.699Z,50.14
2022-09-20T11:24:49.915Z,49.54
2022-09-20T11:27:37.239Z,48.95
2022-09-20T11:30:23.097Z,47.62
2022-09-20T11:32:54.017Z,45.24
2022-09-20T11:35:30.720Z,44.53
2022-09-20T11:38:03.995Z,44.54
2022-09-20T11:40:34.115Z,45.37
2022-09-20T11:43:03.463Z,46.05
2022-09-20T11:45:31.713Z,46.90
2022-09-20T11:48:01.004Z,47.08
2022-09-20T11:51:00.601Z,47.08
2022-09-20T11:53:47.501Z,47.47
2022-09-20T11:56:18.393Z,47.79
2022-09-20T11:58:49.010Z,47.54
2022-09-20T12:01:18.441Z,47.68
2022-09-20T12:03:46.666Z,47.29
2022-09-20T12:06:26.814Z,46.75
2022-09-20T12:08:55.107Z,46.67
2022-09-20T12:11:29.488Z,46.50
2022-09-20T12:14:04.326Z,46.83
2022-09-20T12:16:42.581Z,46.51
2022-09-20T12:19:15.504Z,45.59
2022-09-20T12:22:27.537Z,44.95
2022-09-20T12:25:36.525Z,46.28
2022-09-20T12:28:05.454Z,46.10
2022-09-20T12:30:36.297Z,45.50
2022-09-20T12:33:26.462Z,43.88
2022-09-20T12:36:01.594Z,43.52
2022-09-20T12:38:56.364Z,42.60
2022-09-20T12:41:28.757Z,42.96
2022-09-20T12:44:03.149Z,41.89
2022-09-20T12:46:44.990Z,42.19
2022-09-20T12:49:54.249Z,42.72
2022-09-20T12:52:57.031Z,41.65
2022-09-20T12:55:55.090Z,39.53
2022-09-20T12:58:33.151Z,39.68
2022-09-20T13:01:45.253Z,39.58
2022-09-20T13:04:42.511Z,39.68
2022-09-20T13:07:50.197Z,39.98
2022-09-20T13:10:27.099Z,40.88
2022-09-20T13:13:00.372Z,41.65
2022-09-20T13:15:28.365Z,41.37
2022-09-20T13:17:57.079Z,40.35
2022-09-20T13:20:26.700Z,41.00
2022-09-20T13:22:59.546Z,41.73
2022-09-20T13:25:28.470Z,41.24
2022-09-20T13:28:08.189Z,40.05
2022-09-20T13:30:36.497Z,39.99
2022-09-20T13:33:18.951Z,39.25
2022-09-20T13:35:47.501Z,38.82
2022-09-20T13:38:22.585Z,38.21
2022-09-20T13:40:50.692Z,38.69
2022-09-20T13:43:25.564Z,38.67
2022-09-20T13:45:55.555Z,37.97
2022-09-20T13:48:26.483Z,37.66
2022-09-20T13:50:54.827Z,38.24
2022-09-20T13:53:40.525Z,37.60
2022-09-20T13:56:11.256Z,37.74
2022-09-20T13:58:40.829Z,37.50
2022-09-20T14:01:10.228Z,37.66
2022-09-20T14:03:38.847Z,37.69
2022-09-20T14:06:08.887Z,38.35
2022-09-20T14:08:38.820Z,37.77
2022-09-20T14:11:08.334Z,38.10
2022-09-20T14:13:39.125Z,38.93
2022-09-20T14:16:09.078Z,39.41
2022-09-20T14:18:37.657Z,38.63
2022-09-20T14:21:07.832Z,39.20
2022-09-20T14:23:51.053Z,39.50
2022-09-20T14:26:27.827Z,39.43
2022-09-20T14:28:56.129Z,39.62
2022-09-20T14:31:27.328Z,39.24
2022-09-20T14:33:56.592Z,39.89
2022-09-20T14:36:25.608Z,38.86
2022-09-20T14:38:54.220Z,38.74
2022-09-20T14:41:28.892Z,38.25
2022-09-20T14:43:58.257Z,37.92
2022-09-20T14:46:34.041Z,38.08
2022-09-20T14:49:21.036Z,37.41
2022-09-20T14:51:49.375Z,37.60
2022-09-20T14:54:27.948Z,37.23
2022-09-20T14:56:58.029Z,36.47
2022-09-20T14:59:26.730Z,36.15
2022-09-20T15:02:07.113Z,36.08
2022-09-20T15:04:35.794Z,36.34
2022-09-20T15:07:05.034Z,35.69
2022-09-20T15:09:33.324Z,36.03
2022-09-20T15:12:07.978Z,35.95
2022-09-20T15:14:38.181Z,36.13
2022-09-20T15:17:08.026Z,36.64
2022-09-20T15:19:36.064Z,37.03
2022-09-20T15:22:04.153Z,36.38
2022-09-20T15:24:32.288Z,36.44
2022-09-20T15:27:02.431Z,35.88
2022-09-20T15:29:31.005Z,35.85
2022-09-20T15:32:00.664Z,35.56
2022-09-20T15:34:31.413Z,35.28
2022-09-20T15:37:10.388Z,34.86
2022-09-20T15:39:38.581Z,34.33
2022-09-20T15:42:07.139Z,34.08
2022-09-20T15:44:35.754Z,33.49
2022-09-20T15:47:04.878Z,33.71
2022-09-20T15:49:34.542Z,33.70
2022-09-20T15:52:03.466Z,33.52
2022-09-20T15:54:32.526Z,32.90
2022-09-20T15:57:00.722Z,32.91
2022-09-20T15:59:29.378Z,32.77
2022-09-20T16:01:57.467Z,32.77
2022-09-20T16:04:26.936Z,32.32
2022-09-20T16:06:56.624Z,32.11
2022-09-20T16:09:24.675Z,31.97
2022-09-20T16:11:59.087Z,31.37
2022-09-20T16:14:27.483Z,31.05
2022-09-20T16:17:01.832Z,30.64
2022-09-20T16:19:30.769Z,29.69
2022-09-20T16:22:00.238Z,30.03
2022-09-20T16:24:29.281Z,30.49
2022-09-20T16:26:57.704Z,31.89
2022-09-20T16:29:26.994Z,32.32
2022-09-20T16:31:55.265Z,31.76
2022-09-20T16:34:26.333Z,31.89
2022-09-20T16:36:55.738Z,31.55
2022-09-20T16:39:26.304Z,31.27
2022-09-20T16:41:54.882Z,30.63
2022-09-20T16:44:25.100Z,30.10
2022-09-20T16:46:53.508Z,30.32
2022-09-20T16:49:21.627Z,30.29
2022-09-20T16:51:49.594Z,30.13
2022-09-20T16:54:18.025Z,29.79
2022-09-20T16:56:47.984Z,30.02
2022-09-20T16:59:17.139Z,30.12
2022-09-20T17:01:45.451Z,29.64
2022-09-20T17:04:14.306Z,29.67
2022-09-20T17:06:43.273Z,29.79
2022-09-20T17:09:11.441Z,29.70
2022-09-20T17:11:40.665Z,30.23
2022-09-20T17:14:10.325Z,30.00
2022-09-20T17:16:39.221Z,30.53
2022-09-20T17:19:08.561Z,30.64
2022-09-20T17:21:38.138Z,30.84
2022-09-20T17:24:07.139Z,31.32
2022-09-20T17:26:36.813Z,31.99
2022-09-20T17:29:06.769Z,32.54
2022-09-20T17:31:37.096Z,32.74
2022-09-20T17:34:07.228Z,33.35
2022-09-20T17:36:39.633Z,34.06
2022-09-20T17:39:10.053Z,34.68
2022-09-20T17:41:38.506Z,35.00
2022-09-20T17:44:08.396Z,36.25
2022-09-20T17:46:38.668Z,36.79
2022-09-20T17:49:07.702Z,37.32
2022-09-20T17:51:36.491Z,37.61
2022-09-20T17:54:04.730Z,37.74
2022-09-20T17:56:33.454Z,37.99
2022-09-20T17:59:02.562Z,38.58
2022-09-20T18:01:31.462Z,39.21
2022-09-20T18:04:01.573Z,39.60
2022-09-20T18:06:30.713Z,40.11
2022-09-20T18:09:01.186Z,41.46
2022-09-20T18:11:31.569Z,41.70
2022-09-20T18:13:59.916Z,42.69
2022-09-20T18:16:28.079Z,42.76
2022-09-20T18:21:26.369Z,43.71
2022-09-20T18:23:55.473Z,44.06
2022-09-20T18:26:24.187Z,44.49
2022-09-20T18:28:55.019Z,45.10
2022-09-20T18:31:23.299Z,45.31
2022-09-20T18:33:54.038Z,45.55
2022-09-20T18:36:25.637Z,45.73
2022-09-20T18:38:55.703Z,45.91
2022-09-20T18:41:27.925Z,46.15
2022-09-20T18:43:56.523Z,46.49
2022-09-20T18:46:24.877Z,46.64
2022-09-20T18:48:53.683Z,47.09
2022-09-20T18:51:21.814Z,46.97
2022-09-20T18:53:49.970Z,47.50
2022-09-20T18:56:24.109Z,47.43
2022-09-20T18:58:53.054Z,47.83
2022-09-20T19:01:32.687Z,47.88
2022-09-20T19:04:05.726Z,47.86
2022-09-20T19:06:36.745Z,47.87
2022-09-20T19:09:07.354Z,48.07
2022-09-20T19:11:38.501Z,47.83
2022-09-20T19:14:07.812Z,48.20
2022-09-20T19:16:36.939Z,48.15
2022-09-20T19:19:20.239Z,48.56
2022-09-20T19:21:56.243Z,48.70
2022-09-20T19:24:33.064Z,49.06
2022-09-20T19:27:02.999Z,49.11
2022-09-20T19:29:31.907Z,49.10
2022-09-20T19:32:00.910Z,49.05
2022-09-20T19:34:30.106Z,48.99
2022-09-20T19:37:05.848Z,49.25
2022-09-20T19:39:41.981Z,49.41
2022-09-20T19:42:14.865Z,49.12
2022-09-20T19:44:47.398Z,49.41
2022-09-20T19:47:22.002Z,49.39
2022-09-20T19:49:53.840Z,49.53
2022-09-20T19:52:22.858Z,49.48
2022-09-20T19:54:51.829Z,49.65
2022-09-20T19:57:22.754Z,49.63
2022-09-20T19:59:51.662Z,50.12
2022-09-20T20:02:19.844Z,49.80
2022-09-20T20:04:48.352Z,49.88
2022-09-20T20:07:22.823Z,49.87
2022-09-20T20:09:53.347Z,49.94
2022-09-20T20:12:25.940Z,50.19
2022-09-20T20:14:58.458Z,50.13
2022-09-20T20:17:43.407Z,50.31
2022-09-20T20:20:17.095Z,50.38
2022-09-20T20:23:04.978Z,50.68
2022-09-20T20:25:35.894Z,50.33
2022-09-20T20:28:05.314Z,50.46
2022-09-20T20:30:33.779Z,50.26
2022-09-20T20:33:04.564Z,50.53
2022-09-20T20:35:33.798Z,50.41
2022-09-20T20:38:05.934Z,50.32
2022-09-20T20:40:34.107Z,50.20
2022-09-20T20:43:02.290Z,50.29
2022-09-20T20:45:31.778Z,50.26
2022-09-20T20:48:01.360Z,50.33
2022-09-20T20:50:29.660Z,50.34
2022-09-20T20:52:57.787Z,50.44
2022-09-20T20:55:25.841Z,50.41
2022-09-20T20:57:58.402Z,50.46
2022-09-20T21:00:26.799Z,50.64
2022-09-20T21:03:00.276Z,50.91
2022-09-20T21:05:28.424Z,50.80
2022-09-20T21:07:56.439Z,50.93
2022-09-20T21:10:24.571Z,50.89
2022-09-20T21:12:55.210Z,51.02
2022-09-20T21:15:23.486Z,51.00
2022-09-20T21:17:52.370Z,51.09
2022-09-20T21:20:22.514Z,51.17
2022-09-20T21:22:50.576Z,51.18
2022-09-20T21:25:18.625Z,51.31
2022-09-20T21:27:46.754Z,51.12
2022-09-20T21:30:15.290Z,51.14
2022-09-20T21:32:43.514Z,51.36
2022-09-20T21:35:11.607Z,51.56
2022-09-20T21:37:41.297Z,51.37
2022-09-20T21:40:10.589Z,51.41
2022-09-20T21:42:38.660Z,51.55
2022-09-20T21:45:11.185Z,51.37
2022-09-20T21:47:39.324Z,51.38
2022-09-20T21:50:09.021Z,51.35
2022-09-20T21:52:37.018Z,51.52
2022-09-20T21:55:10.824Z,51.30
2022-09-20T21:57:38.973Z,51.34
2022-09-20T22:00:08.854Z,51.22
2022-09-20T22:02:40.666Z,51.22
2022-09-20T22:05:09.274Z,51.26
2022-09-20T22:07:37.286Z,51.36
2022-09-20T22:10:07.779Z,51.27
2022-09-20T22:12:35.895Z,51.29
2022-09-20T22:15:04.109Z,51.09
2022-09-20T22:17:32.283Z,51.20
2022-09-20T22:20:00.280Z,51.38
2022-09-20T22:22:29.367Z,51.41
2022-09-20T22:24:57.362Z,51.50
2022-09-20T22:27:27.062Z,51.51
2022-09-20T22:29:56.437Z,51.54
2022-09-20T22:32:24.555Z,51.56
2022-09-20T22:34:52.575Z,51.69
2022-09-20T22:37:21.119Z,51.86
2022-09-20T22:39:49.180Z,51.70
2022-09-20T22:42:17.224Z,51.96
2022-09-20T22:44:46.752Z,51.96
2022-09-20T22:47:14.780Z,52.01
2022-09-20T22:49:42.913Z,51.95
2022-09-20T22:52:10.960Z,51.99
2022-09-20T22:54:38.974Z,51.92
2022-09-20T22:57:07.025Z,52.05
2022-09-20T22:59:35.241Z,52.23
2022-09-20T23:02:04.800Z,52.20
2022-09-20T23:04:32.816Z,51.94
2022-09-20T23:07:00.878Z,52.01
2022-09-20T23:09:29.156Z,52.05
2022-09-20T23:11:57.246Z,52.21
2022-09-20T23:14:25.291Z,52.13
2022-09-20T23:16:53.446Z,52.21
2022-09-20T23:19:23.108Z,52.45
2022-09-20T23:21:51.233Z,52.80
2022-09-20T23:24:19.219Z,52.83
2022-09-20T23:26:47.871Z,53.18
2022-09-20T23:29:16.487Z,53.28
2022-09-20T23:31:46.490Z,53.09
2022-09-20T23:34:15.329Z,52.98
2022-09-20T23:36:44.745Z,53.34
2022-09-20T23:39:12.875Z,53.05
2022-09-20T23:41:41.316Z,53.06
2022-09-20T23:44:09.981Z,53.17
2022-09-20T23:46:38.383Z,52.92
2022-09-20T23:49:06.689Z,53.15
2022-09-20T23:51:35.504Z,53.07
2022-09-20T23:54:05.094Z,53.18
2022-09-20T23:56:33.795Z,53.26
2022-09-20T23:59:01.810Z,53.18
